sensor_id;sensor_type;location;lat;lon;timestamp;P1;durP1;ratioP1;P2;durP2;ratioP2
962;SDS011;469;48.770;9.176;2023-02-13T00:00:22;23.48;;;9.07;;
962;SDS011;469;48.770;9.176;2023-02-13T00:02:50;24.23;;;10.45;;
962;SDS011;469;48.770;9.176;2023-02-13T00:05:18;24.83;;;10.10;;
962;SDS011;469;48.770;9.176;2023-02-13T00:07:45;20.70;;;9.60;;
962;SDS011;469;48.770;9.176;2023-02-13T00:10:12;27.08;;;10.57;;
962;SDS011;469;48.770;9.176;2023-02-13T00:12:39;27.98;;;10.93;;
962;SDS011;469;48.770;9.176;2023-02-13T00:15:07;23.20;;;10.18;;
962;SDS011;469;48.770;9.176;2023-02-13T00:17:34;25.70;;;10.07;;
962;SDS011;469;48.770;9.176;2023-02-13T00:20:01;22.83;;;10.35;;
962;SDS011;469;48.770;9.176;2023-02-13T00:22:33;27.80;;;12.40;;
962;SDS011;469;48.770;9.176;2023-02-13T00:25:00;40.42;;;13.10;;
962;SDS011;469;48.770;9.176;2023-02-13T00:27:27;26.40;;;10.70;;
962;SDS011;469;48.770;9.176;2023-02-13T00:29:54;27.52;;;12.00;;
962;SDS011;469;48.770;9.176;2023-02-13T00:32:21;25.55;;;11.18;;
962;SDS011;469;48.770;9.176;2023-02-13T00:34:48;24.48;;;11.70;;
962;SDS011;469;48.770;9.176;2023-02-13T00:37:15;29.60;;;10.85;;
962;SDS011;469;48.770;9.176;2023-02-13T00:39:43;31.48;;;11.45;;
962;SDS011;469;48.770;9.176;2023-02-13T00:42:10;22.02;;;9.98;;
962;SDS011;469;48.770;9.176;2023-02-13T00:44:37;25.25;;;11.50;;
962;SDS011;469;48.770;9.176;2023-02-13T00:47:04;30.75;;;10.55;;
962;SDS011;469;48.770;9.176;2023-02-13T00:49:32;25.25;;;10.82;;
962;SDS011;469;48.770;9.176;2023-02-13T00:51:59;25.98;;;10.18;;
962;SDS011;469;48.770;9.176;2023-02-13T00:54:26;24.70;;;10.80;;
962;SDS011;469;48.770;9.176;2023-02-13T00:56:54;27.15;;;10.18;;
962;SDS011;469;48.770;9.176;2023-02-13T00:59:21;26.20;;;10.65;;
962;SDS011;469;48.770;9.176;2023-02-13T01:01:48;31.75;;;11.15;;
962;SDS011;469;48.770;9.176;2023-02-13T01:04:15;27.60;;;11.00;;
962;SDS011;469;48.770;9.176;2023-02-13T01:06:43;34.38;;;11.85;;
962;SDS011;469;48.770;9.176;2023-02-13T01:09:10;29.55;;;11.77;;
962;SDS011;469;48.770;9.176;2023-02-13T01:11:37;27.25;;;11.45;;
962;SDS011;469;48.770;9.176;2023-02-13T01:14:06;33.38;;;13.38;;
962;SDS011;469;48.770;9.176;2023-02-13T01:16:33;30.92;;;12.68;;
962;SDS011;469;48.770;9.176;2023-02-13T01:19:00;29.50;;;11.73;;
962;SDS011;469;48.770;9.176;2023-02-13T01:21:27;28.08;;;11.50;;
962;SDS011;469;48.770;9.176;2023-02-13T01:23:54;32.08;;;12.45;;
962;SDS011;469;48.770;9.176;2023-02-13T01:26:21;31.35;;;12.30;;
962;SDS011;469;48.770;9.176;2023-02-13T01:28:50;25.08;;;11.00;;
962;SDS011;469;48.770;9.176;2023-02-13T01:31:19;29.95;;;12.57;;
962;SDS011;469;48.770;9.176;2023-02-13T01:33:46;37.17;;;13.70;;
962;SDS011;469;48.770;9.176;2023-02-13T01:36:13;33.78;;;12.65;;
962;SDS011;469;48.770;9.176;2023-02-13T01:38:40;31.88;;;12.10;;
962;SDS011;469;48.770;9.176;2023-02-13T01:41:07;34.40;;;12.23;;
962;SDS011;469;48.770;9.176;2023-02-13T01:43:45;33.88;;;13.10;;
962;SDS011;469;48.770;9.176;2023-02-13T01:46:13;41.70;;;13.57;;
962;SDS011;469;48.770;9.176;2023-02-13T01:48:43;29.85;;;12.07;;
962;SDS011;469;48.770;9.176;2023-02-13T01:51:12;33.08;;;13.05;;
962;SDS011;469;48.770;9.176;2023-02-13T01:53:41;29.88;;;12.32;;
962;SDS011;469;48.770;9.176;2023-02-13T01:56:10;31.45;;;12.02;;
962;SDS011;469;48.770;9.176;2023-02-13T01:58:38;35.03;;;13.02;;
962;SDS011;469;48.770;9.176;2023-02-13T02:01:06;31.33;;;12.63;;
962;SDS011;469;48.770;9.176;2023-02-13T02:03:34;35.05;;;13.55;;
962;SDS011;469;48.770;9.176;2023-02-13T02:06:03;32.15;;;12.75;;
962;SDS011;469;48.770;9.176;2023-02-13T02:08:30;37.67;;;13.55;;
962;SDS011;469;48.770;9.176;2023-02-13T02:10:59;31.67;;;13.00;;
962;SDS011;469;48.770;9.176;2023-02-13T02:13:28;42.45;;;15.10;;
962;SDS011;469;48.770;9.176;2023-02-13T02:15:55;33.38;;;13.80;;
962;SDS011;469;48.770;9.176;2023-02-13T02:18:22;37.80;;;13.85;;
962;SDS011;469;48.770;9.176;2023-02-13T02:21:00;35.80;;;13.27;;
962;SDS011;469;48.770;9.176;2023-02-13T02:23:50;36.17;;;13.35;;
962;SDS011;469;48.770;9.176;2023-02-13T02:26:25;37.70;;;14.20;;
962;SDS011;469;48.770;9.176;2023-02-13T02:29:05;36.67;;;13.43;;
962;SDS011;469;48.770;9.176;2023-02-13T02:31:45;37.13;;;13.50;;
962;SDS011;469;48.770;9.176;2023-02-13T02:34:19;45.42;;;14.05;;
962;SDS011;469;48.770;9.176;2023-02-13T02:36:54;39.83;;;14.63;;
962;SDS011;469;48.770;9.176;2023-02-13T02:39:25;33.03;;;13.60;;
962;SDS011;469;48.770;9.176;2023-02-13T02:41:57;33.40;;;13.68;;
962;SDS011;469;48.770;9.176;2023-02-13T02:44:31;39.55;;;13.35;;
962;SDS011;469;48.770;9.176;2023-02-13T02:47:04;33.95;;;13.18;;
962;SDS011;469;48.770;9.176;2023-02-13T02:49:54;37.25;;;13.85;;
962;SDS011;469;48.770;9.176;2023-02-13T02:52:26;40.88;;;14.25;;
962;SDS011;469;48.770;9.176;2023-02-13T02:54:58;35.97;;;12.95;;
962;SDS011;469;48.770;9.176;2023-02-13T02:57:33;34.00;;;13.52;;
962;SDS011;469;48.770;9.176;2023-02-13T03:00:15;35.20;;;13.38;;
962;SDS011;469;48.770;9.176;2023-02-13T03:03:02;36.28;;;13.80;;
962;SDS011;469;48.770;9.176;2023-02-13T03:05:57;41.50;;;13.45;;
962;SDS011;469;48.770;9.176;2023-02-13T03:08:37;31.98;;;13.00;;
962;SDS011;469;48.770;9.176;2023-02-13T03:11:23;36.40;;;13.40;;
962;SDS011;469;48.770;9.176;2023-02-13T03:14:08;39.90;;;14.50;;
962;SDS011;469;48.770;9.176;2023-02-13T03:16:36;37.25;;;13.35;;
962;SDS011;469;48.770;9.176;2023-02-13T03:19:25;37.97;;;13.77;;
962;SDS011;469;48.770;9.176;2023-02-13T03:22:12;35.00;;;13.07;;
962;SDS011;469;48.770;9.176;2023-02-13T03:24:49;42.97;;;14.35;;
962;SDS011;469;48.770;9.176;2023-02-13T03:27:22;36.00;;;14.07;;
962;SDS011;469;48.770;9.176;2023-02-13T03:30:07;41.08;;;15.57;;
962;SDS011;469;48.770;9.176;2023-02-13T03:32:40;39.25;;;14.70;;
962;SDS011;469;48.770;9.176;2023-02-13T03:35:21;38.10;;;15.05;;
962;SDS011;469;48.770;9.176;2023-02-13T03:38:09;43.92;;;15.25;;
962;SDS011;469;48.770;9.176;2023-02-13T03:40:40;38.33;;;13.73;;
962;SDS011;469;48.770;9.176;2023-02-13T03:43:31;39.00;;;14.65;;
962;SDS011;469;48.770;9.176;2023-02-13T03:45:59;45.35;;;15.68;;
962;SDS011;469;48.770;9.176;2023-02-13T03:48:28;38.00;;;14.80;;
962;SDS011;469;48.770;9.176;2023-02-13T03:51:16;43.15;;;15.55;;
962;SDS011;469;48.770;9.176;2023-02-13T03:53:45;39.75;;;15.15;;
962;SDS011;469;48.770;9.176;2023-02-13T03:56:13;38.17;;;13.90;;
962;SDS011;469;48.770;9.176;2023-02-13T03:58:59;39.97;;;14.73;;
962;SDS011;469;48.770;9.176;2023-02-13T04:01:42;40.58;;;15.38;;
962;SDS011;469;48.770;9.176;2023-02-13T04:04:11;46.50;;;15.98;;
962;SDS011;469;48.770;9.176;2023-02-13T04:06:41;46.00;;;14.07;;
962;SDS011;469;48.770;9.176;2023-02-13T04:09:11;42.72;;;14.60;;
962;SDS011;469;48.770;9.176;2023-02-13T04:11:38;44.40;;;15.88;;
962;SDS011;469;48.770;9.176;2023-02-13T04:14:10;45.67;;;15.00;;
962;SDS011;469;48.770;9.176;2023-02-13T04:16:40;44.53;;;16.08;;
962;SDS011;469;48.770;9.176;2023-02-13T04:19:08;46.10;;;16.15;;
962;SDS011;469;48.770;9.176;2023-02-13T04:21:36;46.53;;;15.65;;
962;SDS011;469;48.770;9.176;2023-02-13T04:24:06;41.10;;;15.73;;
962;SDS011;469;48.770;9.176;2023-02-13T04:26:34;44.63;;;15.52;;
962;SDS011;469;48.770;9.176;2023-02-13T04:29:02;41.78;;;15.63;;
962;SDS011;469;48.770;9.176;2023-02-13T04:31:29;49.78;;;17.00;;
962;SDS011;469;48.770;9.176;2023-02-13T04:33:56;49.03;;;15.95;;
962;SDS011;469;48.770;9.176;2023-02-13T04:36:23;43.13;;;16.13;;
962;SDS011;469;48.770;9.176;2023-02-13T04:38:50;50.05;;;15.90;;
962;SDS011;469;48.770;9.176;2023-02-13T04:41:18;41.40;;;15.60;;
962;SDS011;469;48.770;9.176;2023-02-13T04:43:46;40.78;;;14.25;;
962;SDS011;469;48.770;9.176;2023-02-13T04:46:13;43.90;;;15.48;;
962;SDS011;469;48.770;9.176;2023-02-13T04:48:40;39.75;;;14.48;;
962;SDS011;469;48.770;9.176;2023-02-13T04:51:07;44.28;;;15.07;;
962;SDS011;469;48.770;9.176;2023-02-13T04:53:34;38.78;;;15.25;;
962;SDS011;469;48.770;9.176;2023-02-13T04:56:01;49.13;;;15.45;;
962;SDS011;469;48.770;9.176;2023-02-13T04:58:30;48.55;;;16.10;;
962;SDS011;469;48.770;9.176;2023-02-13T05:00:57;43.88;;;14.52;;
962;SDS011;469;48.770;9.176;2023-02-13T05:03:24;45.75;;;15.90;;
962;SDS011;469;48.770;9.176;2023-02-13T05:05:51;42.85;;;15.90;;
962;SDS011;469;48.770;9.176;2023-02-13T05:08:18;45.67;;;16.48;;
962;SDS011;469;48.770;9.176;2023-02-13T05:10:45;43.17;;;16.08;;
962;SDS011;469;48.770;9.176;2023-02-13T05:13:12;51.40;;;16.10;;
962;SDS011;469;48.770;9.176;2023-02-13T05:15:41;48.55;;;16.38;;
962;SDS011;469;48.770;9.176;2023-02-13T05:18:09;44.40;;;15.45;;
962;SDS011;469;48.770;9.176;2023-02-13T05:20:35;48.08;;;17.77;;
962;SDS011;469;48.770;9.176;2023-02-13T05:23:03;44.72;;;15.25;;
962;SDS011;469;48.770;9.176;2023-02-13T05:25:47;45.60;;;15.57;;
962;SDS011;469;48.770;9.176;2023-02-13T05:28:14;45.92;;;17.05;;
962;SDS011;469;48.770;9.176;2023-02-13T05:31:00;43.83;;;15.43;;
962;SDS011;469;48.770;9.176;2023-02-13T05:33:27;42.60;;;15.85;;
962;SDS011;469;48.770;9.176;2023-02-13T05:35:54;51.58;;;17.75;;
962;SDS011;469;48.770;9.176;2023-02-13T05:38:22;49.67;;;16.95;;
962;SDS011;469;48.770;9.176;2023-02-13T05:40:49;44.55;;;16.98;;
962;SDS011;469;48.770;9.176;2023-02-13T05:43:16;44.85;;;15.68;;
962;SDS011;469;48.770;9.176;2023-02-13T05:45:43;51.00;;;17.83;;
962;SDS011;469;48.770;9.176;2023-02-13T05:48:11;44.17;;;13.98;;
962;SDS011;469;48.770;9.176;2023-02-13T05:50:38;49.10;;;16.70;;
962;SDS011;469;48.770;9.176;2023-02-13T05:53:05;43.85;;;15.77;;
962;SDS011;469;48.770;9.176;2023-02-13T05:55:32;46.55;;;16.30;;
962;SDS011;469;48.770;9.176;2023-02-13T05:57:59;58.90;;;18.38;;
962;SDS011;469;48.770;9.176;2023-02-13T06:00:26;45.67;;;16.08;;
962;SDS011;469;48.770;9.176;2023-02-13T06:02:53;45.95;;;17.15;;
962;SDS011;469;48.770;9.176;2023-02-13T06:05:22;42.92;;;15.27;;
962;SDS011;469;48.770;9.176;2023-02-13T06:07:49;52.47;;;16.73;;
962;SDS011;469;48.770;9.176;2023-02-13T06:10:16;42.28;;;15.57;;
962;SDS011;469;48.770;9.176;2023-02-13T06:12:43;49.90;;;17.00;;
962;SDS011;469;48.770;9.176;2023-02-13T06:15:10;42.47;;;16.15;;
962;SDS011;469;48.770;9.176;2023-02-13T06:17:37;37.70;;;14.30;;
962;SDS011;469;48.770;9.176;2023-02-13T06:20:05;45.83;;;17.00;;
962;SDS011;469;48.770;9.176;2023-02-13T06:22:33;41.15;;;14.23;;
962;SDS011;469;48.770;9.176;2023-02-13T06:25:00;46.70;;;16.45;;
962;SDS011;469;48.770;9.176;2023-02-13T06:27:27;47.00;;;16.38;;
962;SDS011;469;48.770;9.176;2023-02-13T06:29:54;52.03;;;17.52;;
962;SDS011;469;48.770;9.176;2023-02-13T06:32:21;47.05;;;16.40;;
962;SDS011;469;48.770;9.176;2023-02-13T06:34:48;46.03;;;16.55;;
962;SDS011;469;48.770;9.176;2023-02-13T06:37:15;49.97;;;17.75;;
962;SDS011;469;48.770;9.176;2023-02-13T06:39:44;46.55;;;16.45;;
962;SDS011;469;48.770;9.176;2023-02-13T06:42:11;54.65;;;16.65;;
962;SDS011;469;48.770;9.176;2023-02-13T06:44:38;54.35;;;17.67;;
962;SDS011;469;48.770;9.176;2023-02-13T06:47:05;44.58;;;16.85;;
962;SDS011;469;48.770;9.176;2023-02-13T06:49:32;48.75;;;17.17;;
962;SDS011;469;48.770;9.176;2023-02-13T06:51:59;45.88;;;16.55;;
962;SDS011;469;48.770;9.176;2023-02-13T06:54:26;48.15;;;17.33;;
962;SDS011;469;48.770;9.176;2023-02-13T06:56:54;45.88;;;16.13;;
962;SDS011;469;48.770;9.176;2023-02-13T06:59:21;47.97;;;16.60;;
962;SDS011;469;48.770;9.176;2023-02-13T07:01:48;41.55;;;15.82;;
962;SDS011;469;48.770;9.176;2023-02-13T07:04:15;44.30;;;15.65;;
962;SDS011;469;48.770;9.176;2023-02-13T07:06:42;47.17;;;16.40;;
962;SDS011;469;48.770;9.176;2023-02-13T07:09:10;43.88;;;17.52;;
962;SDS011;469;48.770;9.176;2023-02-13T07:11:37;43.58;;;15.90;;
962;SDS011;469;48.770;9.176;2023-02-13T07:14:06;43.20;;;16.15;;
962;SDS011;469;48.770;9.176;2023-02-13T07:16:33;60.50;;;17.88;;
962;SDS011;469;48.770;9.176;2023-02-13T07:19:01;42.70;;;16.02;;
962;SDS011;469;48.770;9.176;2023-02-13T07:21:28;50.30;;;17.02;;
962;SDS011;469;48.770;9.176;2023-02-13T07:23:55;47.13;;;17.00;;
962;SDS011;469;48.770;9.176;2023-02-13T07:26:22;45.40;;;16.23;;
962;SDS011;469;48.770;9.176;2023-02-13T07:28:50;50.60;;;17.40;;
962;SDS011;469;48.770;9.176;2023-02-13T07:31:19;45.08;;;15.68;;
962;SDS011;469;48.770;9.176;2023-02-13T07:33:47;47.35;;;17.75;;
962;SDS011;469;48.770;9.176;2023-02-13T07:36:14;53.63;;;18.20;;
962;SDS011;469;48.770;9.176;2023-02-13T07:38:41;54.33;;;17.58;;
962;SDS011;469;48.770;9.176;2023-02-13T07:41:08;48.88;;;16.90;;
962;SDS011;469;48.770;9.176;2023-02-13T07:43:35;48.55;;;18.13;;
962;SDS011;469;48.770;9.176;2023-02-13T07:46:02;43.53;;;17.40;;
962;SDS011;469;48.770;9.176;2023-02-13T07:48:31;44.20;;;16.52;;
962;SDS011;469;48.770;9.176;2023-02-13T07:50:58;50.78;;;17.55;;
962;SDS011;469;48.770;9.176;2023-02-13T07:53:25;53.17;;;16.75;;
962;SDS011;469;48.770;9.176;2023-02-13T07:55:52;47.15;;;17.10;;
962;SDS011;469;48.770;9.176;2023-02-13T07:58:20;50.83;;;16.08;;
962;SDS011;469;48.770;9.176;2023-02-13T08:00:47;50.17;;;18.67;;
962;SDS011;469;48.770;9.176;2023-02-13T08:03:14;43.38;;;17.80;;
962;SDS011;469;48.770;9.176;2023-02-13T08:05:42;46.60;;;17.00;;
962;SDS011;469;48.770;9.176;2023-02-13T08:08:13;45.35;;;16.30;;
962;SDS011;469;48.770;9.176;2023-02-13T08:10:40;42.25;;;16.17;;
962;SDS011;469;48.770;9.176;2023-02-13T08:13:25;44.00;;;16.75;;
962;SDS011;469;48.770;9.176;2023-02-13T08:15:53;46.55;;;17.20;;
962;SDS011;469;48.770;9.176;2023-02-13T08:18:20;41.95;;;16.55;;
962;SDS011;469;48.770;9.176;2023-02-13T08:20:48;47.83;;;18.05;;
962;SDS011;469;48.770;9.176;2023-02-13T08:23:15;46.13;;;17.08;;
962;SDS011;469;48.770;9.176;2023-02-13T08:25:42;51.47;;;19.30;;
962;SDS011;469;48.770;9.176;2023-02-13T08:28:11;44.40;;;16.67;;
962;SDS011;469;48.770;9.176;2023-02-13T08:30:38;44.03;;;17.08;;
962;SDS011;469;48.770;9.176;2023-02-13T08:33:05;44.58;;;18.00;;
962;SDS011;469;48.770;9.176;2023-02-13T08:35:32;42.83;;;16.40;;
962;SDS011;469;48.770;9.176;2023-02-13T08:38:04;47.75;;;18.63;;
962;SDS011;469;48.770;9.176;2023-02-13T08:40:31;50.97;;;19.80;;
962;SDS011;469;48.770;9.176;2023-02-13T08:42:58;46.30;;;17.38;;
962;SDS011;469;48.770;9.176;2023-02-13T08:45:26;34.53;;;13.63;;
962;SDS011;469;48.770;9.176;2023-02-13T08:47:54;33.05;;;13.90;;
962;SDS011;469;48.770;9.176;2023-02-13T08:50:21;30.77;;;13.25;;
962;SDS011;469;48.770;9.176;2023-02-13T08:52:48;33.67;;;14.52;;
962;SDS011;469;48.770;9.176;2023-02-13T08:55:17;24.80;;;12.40;;
962;SDS011;469;48.770;9.176;2023-02-13T08:57:44;27.70;;;13.15;;
962;SDS011;469;48.770;9.176;2023-02-13T09:00:11;30.13;;;12.40;;
962;SDS011;469;48.770;9.176;2023-02-13T09:02:38;28.90;;;12.10;;
962;SDS011;469;48.770;9.176;2023-02-13T09:05:06;24.27;;;11.32;;
962;SDS011;469;48.770;9.176;2023-02-13T09:07:33;24.30;;;10.77;;
962;SDS011;469;48.770;9.176;2023-02-13T09:10:00;21.55;;;10.35;;
962;SDS011;469;48.770;9.176;2023-02-13T09:12:29;25.15;;;11.10;;
962;SDS011;469;48.770;9.176;2023-02-13T09:14:56;21.73;;;10.30;;
962;SDS011;469;48.770;9.176;2023-02-13T09:17:23;23.15;;;10.55;;
962;SDS011;469;48.770;9.176;2023-02-13T09:19:50;23.35;;;10.52;;
962;SDS011;469;48.770;9.176;2023-02-13T09:22:17;26.77;;;11.32;;
962;SDS011;469;48.770;9.176;2023-02-13T09:27:49;19.80;;;10.07;;
962;SDS011;469;48.770;9.176;2023-02-13T09:30:18;30.05;;;10.48;;
962;SDS011;469;48.770;9.176;2023-02-13T09:32:48;23.70;;;11.23;;
962;SDS011;469;48.770;9.176;2023-02-13T09:35:18;30.35;;;11.07;;
962;SDS011;469;48.770;9.176;2023-02-13T09:37:52;21.90;;;10.75;;
962;SDS011;469;48.770;9.176;2023-02-13T09:40:20;23.25;;;11.32;;
962;SDS011;469;48.770;9.176;2023-02-13T09:42:53;23.75;;;10.30;;
962;SDS011;469;48.770;9.176;2023-02-13T09:45:27;26.20;;;11.38;;
962;SDS011;469;48.770;9.176;2023-02-13T09:47:53;23.20;;;10.50;;
962;SDS011;469;48.770;9.176;2023-02-13T09:50:20;23.15;;;11.60;;
962;SDS011;469;48.770;9.176;2023-02-13T09:52:51;26.30;;;11.70;;
962;SDS011;469;48.770;9.176;2023-02-13T09:55:20;28.48;;;11.57;;
962;SDS011;469;48.770;9.176;2023-02-13T09:57:55;21.63;;;10.98;;
962;SDS011;469;48.770;9.176;2023-02-13T10:00:28;22.55;;;10.35;;
962;SDS011;469;48.770;9.176;2023-02-13T10:03:17;24.45;;;11.55;;
962;SDS011;469;48.770;9.176;2023-02-13T10:05:50;23.08;;;11.13;;
962;SDS011;469;48.770;9.176;2023-02-13T10:08:26;25.52;;;10.98;;
962;SDS011;469;48.770;9.176;2023-02-13T10:11:07;25.85;;;11.55;;
962;SDS011;469;48.770;9.176;2023-02-13T10:13:55;28.48;;;10.32;;
962;SDS011;469;48.770;9.176;2023-02-13T10:16:27;28.92;;;10.90;;
962;SDS011;469;48.770;9.176;2023-02-13T10:19:01;23.42;;;10.98;;
962;SDS011;469;48.770;9.176;2023-02-13T10:21:33;21.30;;;9.80;;
962;SDS011;469;48.770;9.176;2023-02-13T10:24:09;22.17;;;10.48;;
962;SDS011;469;48.770;9.176;2023-02-13T10:26:42;21.90;;;9.75;;
962;SDS011;469;48.770;9.176;2023-02-13T10:29:15;19.45;;;10.00;;
962;SDS011;469;48.770;9.176;2023-02-13T10:32:03;23.17;;;9.45;;
962;SDS011;469;48.770;9.176;2023-02-13T10:34:35;27.77;;;10.27;;
962;SDS011;469;48.770;9.176;2023-02-13T10:37:08;20.80;;;9.70;;
962;SDS011;469;48.770;9.176;2023-02-13T10:39:39;18.75;;;9.25;;
962;SDS011;469;48.770;9.176;2023-02-13T10:42:10;17.48;;;8.40;;
962;SDS011;469;48.770;9.176;2023-02-13T10:44:50;20.70;;;8.63;;
962;SDS011;469;48.770;9.176;2023-02-13T10:50:32;19.77;;;9.65;;
962;SDS011;469;48.770;9.176;2023-02-13T10:53:10;18.50;;;9.02;;
962;SDS011;469;48.770;9.176;2023-02-13T10:55:57;21.10;;;9.40;;
962;SDS011;469;48.770;9.176;2023-02-13T10:58:32;22.05;;;9.25;;
962;SDS011;469;48.770;9.176;2023-02-13T11:01:08;19.23;;;9.07;;
962;SDS011;469;48.770;9.176;2023-02-13T11:03:42;19.65;;;9.38;;
962;SDS011;469;48.770;9.176;2023-02-13T11:06:14;18.98;;;9.20;;
962;SDS011;469;48.770;9.176;2023-02-13T11:08:44;17.67;;;8.80;;
962;SDS011;469;48.770;9.176;2023-02-13T11:11:28;25.48;;;8.95;;
962;SDS011;469;48.770;9.176;2023-02-13T11:14:07;23.88;;;9.43;;
962;SDS011;469;48.770;9.176;2023-02-13T11:16:42;19.17;;;8.60;;
962;SDS011;469;48.770;9.176;2023-02-13T11:19:15;23.50;;;9.05;;
962;SDS011;469;48.770;9.176;2023-02-13T11:21:54;15.90;;;8.45;;
962;SDS011;469;48.770;9.176;2023-02-13T11:24:24;19.17;;;8.32;;
962;SDS011;469;48.770;9.176;2023-02-13T11:26:55;17.98;;;7.70;;
962;SDS011;469;48.770;9.176;2023-02-13T11:29:25;17.85;;;8.70;;
962;SDS011;469;48.770;9.176;2023-02-13T11:32:03;20.13;;;8.13;;
962;SDS011;469;48.770;9.176;2023-02-13T11:34:42;18.60;;;8.45;;
962;SDS011;469;48.770;9.176;2023-02-13T11:37:14;19.50;;;6.90;;
962;SDS011;469;48.770;9.176;2023-02-13T11:39:43;17.38;;;8.38;;
962;SDS011;469;48.770;9.176;2023-02-13T11:42:12;20.92;;;8.38;;
962;SDS011;469;48.770;9.176;2023-02-13T11:44:40;14.90;;;7.00;;
962;SDS011;469;48.770;9.176;2023-02-13T11:47:10;17.30;;;7.25;;
962;SDS011;469;48.770;9.176;2023-02-13T11:49:38;24.95;;;7.35;;
962;SDS011;469;48.770;9.176;2023-02-13T11:52:13;16.23;;;7.28;;
962;SDS011;469;48.770;9.176;2023-02-13T11:54:54;18.38;;;7.53;;
962;SDS011;469;48.770;9.176;2023-02-13T11:57:24;20.50;;;9.45;;
962;SDS011;469;48.770;9.176;2023-02-13T11:59:56;20.30;;;7.45;;
962;SDS011;469;48.770;9.176;2023-02-13T12:02:26;14.68;;;6.80;;
962;SDS011;469;48.770;9.176;2023-02-13T12:07:41;21.73;;;7.18;;
962;SDS011;469;48.770;9.176;2023-02-13T12:10:15;16.98;;;6.90;;
962;SDS011;469;48.770;9.176;2023-02-13T12:12:49;11.75;;;6.10;;
962;SDS011;469;48.770;9.176;2023-02-13T12:15:20;19.88;;;6.88;;
962;SDS011;469;48.770;9.176;2023-02-13T12:17:56;14.68;;;6.80;;
962;SDS011;469;48.770;9.176;2023-02-13T12:20:41;19.63;;;6.70;;
962;SDS011;469;48.770;9.176;2023-02-13T12:23:17;15.80;;;7.43;;
962;SDS011;469;48.770;9.176;2023-02-13T12:26:09;13.00;;;6.60;;
962;SDS011;469;48.770;9.176;2023-02-13T12:28:59;22.87;;;6.70;;
962;SDS011;469;48.770;9.176;2023-02-13T12:31:54;17.90;;;7.47;;
962;SDS011;469;48.770;9.176;2023-02-13T12:34:47;18.30;;;8.50;;
962;SDS011;469;48.770;9.176;2023-02-13T12:37:32;24.88;;;7.65;;
962;SDS011;469;48.770;9.176;2023-02-13T12:40:17;15.93;;;7.80;;
962;SDS011;469;48.770;9.176;2023-02-13T12:42:54;19.92;;;9.90;;
962;SDS011;469;48.770;9.176;2023-02-13T12:45:42;16.90;;;8.80;;
962;SDS011;469;48.770;9.176;2023-02-13T12:48:32;18.08;;;9.07;;
962;SDS011;469;48.770;9.176;2023-02-13T12:51:10;22.67;;;9.50;;
962;SDS011;469;48.770;9.176;2023-02-13T12:53:55;22.30;;;10.30;;
962;SDS011;469;48.770;9.176;2023-02-13T12:56:44;15.20;;;8.75;;
962;SDS011;469;48.770;9.176;2023-02-13T13:02:48;14.98;;;7.75;;
962;SDS011;469;48.770;9.176;2023-02-13T13:05:26;19.48;;;8.95;;
962;SDS011;469;48.770;9.176;2023-02-13T13:08:15;18.48;;;8.98;;
962;SDS011;469;48.770;9.176;2023-02-13T13:10:54;21.70;;;8.25;;
962;SDS011;469;48.770;9.176;2023-02-13T13:13:47;20.70;;;8.05;;
962;SDS011;469;48.770;9.176;2023-02-13T13:16:25;16.38;;;8.75;;
962;SDS011;469;48.770;9.176;2023-02-13T13:19:09;18.75;;;8.77;;
962;SDS011;469;48.770;9.176;2023-02-13T13:21:46;24.33;;;8.82;;
962;SDS011;469;48.770;9.176;2023-02-13T13:24:24;19.00;;;8.88;;
962;SDS011;469;48.770;9.176;2023-02-13T13:27:17;17.52;;;8.38;;
962;SDS011;469;48.770;9.176;2023-02-13T13:29:49;19.75;;;8.80;;
962;SDS011;469;48.770;9.176;2023-02-13T13:32:43;20.58;;;9.13;;
962;SDS011;469;48.770;9.176;2023-02-13T13:35:25;20.58;;;8.68;;
962;SDS011;469;48.770;9.176;2023-02-13T13:38:01;18.02;;;8.73;;
962;SDS011;469;48.770;9.176;2023-02-13T13:40:42;21.38;;;8.98;;
962;SDS011;469;48.770;9.176;2023-02-13T13:43:18;22.92;;;8.55;;
962;SDS011;469;48.770;9.176;2023-02-13T13:45:57;16.65;;;7.80;;
962;SDS011;469;48.770;9.176;2023-02-13T13:51:28;27.75;;;8.40;;
962;SDS011;469;48.770;9.176;2023-02-13T13:57:02;16.40;;;8.48;;
962;SDS011;469;48.770;9.176;2023-02-13T14:02:38;16.85;;;8.43;;
962;SDS011;469;48.770;9.176;2023-02-13T14:05:24;16.10;;;9.07;;
962;SDS011;469;48.770;9.176;2023-02-13T14:07:53;17.17;;;8.45;;
962;SDS011;469;48.770;9.176;2023-02-13T14:13:29;25.27;;;10.50;;
962;SDS011;469;48.770;9.176;2023-02-13T14:15:57;16.13;;;7.45;;
962;SDS011;469;48.770;9.176;2023-02-13T14:18:24;18.88;;;8.98;;
962;SDS011;469;48.770;9.176;2023-02-13T14:20:52;17.35;;;8.82;;
962;SDS011;469;48.770;9.176;2023-02-13T14:23:28;22.42;;;10.18;;
962;SDS011;469;48.770;9.176;2023-02-13T14:26:11;16.75;;;8.48;;
962;SDS011;469;48.770;9.176;2023-02-13T14:28:55;15.63;;;7.85;;
962;SDS011;469;48.770;9.176;2023-02-13T14:31:41;17.15;;;8.30;;
962;SDS011;469;48.770;9.176;2023-02-13T14:34:17;20.92;;;8.40;;
962;SDS011;469;48.770;9.176;2023-02-13T14:36:57;27.30;;;8.35;;
962;SDS011;469;48.770;9.176;2023-02-13T14:39:32;16.52;;;7.93;;
962;SDS011;469;48.770;9.176;2023-02-13T14:42:00;20.55;;;8.70;;
962;SDS011;469;48.770;9.176;2023-02-13T14:44:31;18.25;;;8.65;;
962;SDS011;469;48.770;9.176;2023-02-13T14:47:02;19.00;;;7.43;;
962;SDS011;469;48.770;9.176;2023-02-13T14:49:32;25.20;;;9.27;;
962;SDS011;469;48.770;9.176;2023-02-13T14:52:03;20.45;;;8.52;;
962;SDS011;469;48.770;9.176;2023-02-13T14:54:32;20.67;;;9.05;;
962;SDS011;469;48.770;9.176;2023-02-13T14:57:13;20.40;;;9.00;;
962;SDS011;469;48.770;9.176;2023-02-13T14:59:46;23.45;;;8.65;;
962;SDS011;469;48.770;9.176;2023-02-13T15:02:16;25.65;;;7.95;;
962;SDS011;469;48.770;9.176;2023-02-13T15:07:30;18.20;;;8.10;;
962;SDS011;469;48.770;9.176;2023-02-13T15:10:01;20.55;;;7.88;;
962;SDS011;469;48.770;9.176;2023-02-13T15:12:33;13.95;;;7.45;;
962;SDS011;469;48.770;9.176;2023-02-13T15:15:04;25.52;;;9.50;;
962;SDS011;469;48.770;9.176;2023-02-13T15:17:48;26.35;;;8.85;;
962;SDS011;469;48.770;9.176;2023-02-13T15:20:18;24.25;;;8.32;;
962;SDS011;469;48.770;9.176;2023-02-13T15:22:49;22.63;;;9.45;;
962;SDS011;469;48.770;9.176;2023-02-13T15:25:21;26.65;;;7.35;;
962;SDS011;469;48.770;9.176;2023-02-13T15:27:50;14.65;;;8.50;;
962;SDS011;469;48.770;9.176;2023-02-13T15:30:21;16.27;;;7.32;;
962;SDS011;469;48.770;9.176;2023-02-13T15:32:53;13.15;;;6.90;;
962;SDS011;469;48.770;9.176;2023-02-13T15:35:21;14.20;;;7.30;;
962;SDS011;469;48.770;9.176;2023-02-13T15:37:53;16.48;;;7.47;;
962;SDS011;469;48.770;9.176;2023-02-13T15:40:22;15.82;;;7.43;;
962;SDS011;469;48.770;9.176;2023-02-13T15:42:49;14.48;;;6.95;;
962;SDS011;469;48.770;9.176;2023-02-13T15:45:17;16.55;;;7.72;;
962;SDS011;469;48.770;9.176;2023-02-13T15:47:52;19.25;;;7.95;;
962;SDS011;469;48.770;9.176;2023-02-13T15:50:30;14.60;;;7.45;;
962;SDS011;469;48.770;9.176;2023-02-13T15:53:33;15.65;;;7.55;;
962;SDS011;469;48.770;9.176;2023-02-13T15:56:01;17.58;;;7.53;;
962;SDS011;469;48.770;9.176;2023-02-13T15:58:29;20.92;;;7.68;;
962;SDS011;469;48.770;9.176;2023-02-13T16:01:04;12.55;;;6.95;;
962;SDS011;469;48.770;9.176;2023-02-13T16:03:38;14.75;;;7.28;;
962;SDS011;469;48.770;9.176;2023-02-13T16:06:12;17.63;;;7.03;;
962;SDS011;469;48.770;9.176;2023-02-13T16:08:52;13.45;;;7.63;;
962;SDS011;469;48.770;9.176;2023-02-13T16:11:29;16.02;;;8.25;;
962;SDS011;469;48.770;9.176;2023-02-13T16:14:06;15.85;;;7.53;;
962;SDS011;469;48.770;9.176;2023-02-13T16:16:35;18.10;;;8.00;;